sensor_id;sensor_type;location;lat;lon;timestamp;temperature;humidity
54558;DHT22;40452;50.080;20.040;2023-04-24T03:45:33;21.50;44.50
54558;DHT22;40452;50.080;20.040;2023-04-24T03:47:58;21.60;45.80
54558;DHT22;40452;50.080;20.040;2023-04-24T03:50:24;21.60;45.30
54558;DHT22;40452;50.080;20.040;2023-04-24T03:52:52;21.60;45.40
54558;DHT22;40452;50.080;20.040;2023-04-24T03:55:18;21.60;45.40
54558;DHT22;40452;50.080;20.040;2023-04-24T03:57:46;21.60;45.20
54558;DHT22;40452;50.080;20.040;2023-04-24T04:00:12;21.60;45.50
54558;DHT22;40452;50.080;20.040;2023-04-24T04:02:40;21.60;44.60
54558;DHT22;40452;50.080;20.040;2023-04-24T04:05:05;21.60;44.20
54558;DHT22;40452;50.080;20.040;2023-04-24T04:07:31;21.50;43.30
54558;DHT22;40452;50.080;20.040;2023-04-24T04:09:56;21.50;44.10
54558;DHT22;40452;50.080;20.040;2023-04-24T04:12:22;21.50;44.40
54558;DHT22;40452;50.080;20.040;2023-04-24T04:14:47;21.50;44.90
54558;DHT22;40452;50.080;20.040;2023-04-24T04:17:13;21.60;45.00
54558;DHT22;40452;50.080;20.040;2023-04-24T04:19:38;21.60;45.00
54558;DHT22;40452;50.080;20.040;2023-04-24T04:22:04;21.60;45.20
54558;DHT22;40452;50.080;20.040;2023-04-24T04:24:29;21.60;45.20
54558;DHT22;40452;50.080;20.040;2023-04-24T04:26:55;21.60;45.20
54558;DHT22;40452;50.080;20.040;2023-04-24T04:29:23;21.60;45.30
54558;DHT22;40452;50.080;20.040;2023-04-24T04:31:49;21.60;45.30
54558;DHT22;40452;50.080;20.040;2023-04-24T04:34:14;21.60;45.30
54558;DHT22;40452;50.080;20.040;2023-04-24T04:36:41;21.60;45.30
54558;DHT22;40452;50.080;20.040;2023-04-24T04:39:06;21.50;45.30
54558;DHT22;40452;50.080;20.040;2023-04-24T04:41:32;21.60;45.40
54558;DHT22;40452;50.080;20.040;2023-04-24T04:44:01;21.60;45.30
54558;DHT22;40452;50.080;20.040;2023-04-24T04:46:27;21.60;45.40
54558;DHT22;40452;50.080;20.040;2023-04-24T04:48:53;21.60;45.40
54558;DHT22;40452;50.080;20.040;2023-04-24T04:51:19;21.70;45.50
54558;DHT22;40452;50.080;20.040;2023-04-24T04:53:45;21.60;45.60
54558;DHT22;40452;50.080;20.040;2023-04-24T04:56:10;21.60;46.40
54558;DHT22;40452;50.080;20.040;2023-04-24T04:58:36;21.70;45.70
54558;DHT22;40452;50.080;20.040;2023-04-24T05:03:28;21.60;44.90
54558;DHT22;40452;50.080;20.040;2023-04-24T05:05:53;21.70;45.50
54558;DHT22;40452;50.080;20.040;2023-04-24T05:08:19;21.70;45.50
54558;DHT22;40452;50.080;20.040;2023-04-24T05:10:45;21.70;45.50
54558;DHT22;40452;50.080;20.040;2023-04-24T05:13:10;21.70;45.40
54558;DHT22;40452;50.080;20.040;2023-04-24T05:15:36;21.70;45.50
54558;DHT22;40452;50.080;20.040;2023-04-24T05:18:01;21.70;45.50
54558;DHT22;40452;50.080;20.040;2023-04-24T05:20:27;21.70;45.50
54558;DHT22;40452;50.080;20.040;2023-04-24T05:22:52;21.70;45.60
54558;DHT22;40452;50.080;20.040;2023-04-24T05:25:18;21.10;41.50
54558;DHT22;40452;50.080;20.040;2023-04-24T05:27:43;20.10;41.50
54558;DHT22;40452;50.080;20.040;2023-04-24T05:30:10;19.70;41.70
54558;DHT22;40452;50.080;20.040;2023-04-24T05:32:35;19.30;41.40
54558;DHT22;40452;50.080;20.040;2023-04-24T05:35:01;19.20;41.90
54558;DHT22;40452;50.080;20.040;2023-04-24T05:37:26;19.00;42.00
54558;DHT22;40452;50.080;20.040;2023-04-24T05:39:52;18.90;42.70
54558;DHT22;40452;50.080;20.040;2023-04-24T05:42:17;18.80;42.70
54558;DHT22;40452;50.080;20.040;2023-04-24T05:44:43;18.70;42.70
54558;DHT22;40452;50.080;20.040;2023-04-24T05:47:09;19.20;43.50
54558;DHT22;40452;50.080;20.040;2023-04-24T05:51:49;19.80;43.90
54558;DHT22;40452;50.080;20.040;2023-04-24T13:44:48;21.10;38.70
54558;DHT22;40452;50.080;20.040;2023-04-24T13:49:39;21.10;39.60
54558;DHT22;40452;50.080;20.040;2023-04-24T13:52:05;21.20;40.90
54558;DHT22;40452;50.080;20.040;2023-04-24T13:54:30;21.20;41.00
54558;DHT22;40452;50.080;20.040;2023-04-24T13:56:57;21.20;41.30
54558;DHT22;40452;50.080;20.040;2023-04-24T13:59:23;21.20;41.40
54558;DHT22;40452;50.080;20.040;2023-04-24T14:01:49;21.20;41.40
54558;DHT22;40452;50.080;20.040;2023-04-24T14:04:14;21.20;41.60
54558;DHT22;40452;50.080;20.040;2023-04-24T14:06:40;21.20;41.70
54558;DHT22;40452;50.080;20.040;2023-04-24T14:09:06;21.20;41.80
54558;DHT22;40452;50.080;20.040;2023-04-24T14:11:34;21.20;41.80
54558;DHT22;40452;50.080;20.040;2023-04-24T14:13:59;21.20;41.90
54558;DHT22;40452;50.080;20.040;2023-04-24T14:16:25;21.20;41.90
54558;DHT22;40452;50.080;20.040;2023-04-24T14:18:50;21.20;42.00
54558;DHT22;40452;50.080;20.040;2023-04-24T14:21:16;21.20;42.10
54558;DHT22;40452;50.080;20.040;2023-04-24T14:23:41;21.20;42.20
54558;DHT22;40452;50.080;20.040;2023-04-24T14:26:07;21.30;42.30
54558;DHT22;40452;50.080;20.040;2023-04-24T14:28:33;21.30;42.40
54558;DHT22;40452;50.080;20.040;2023-04-24T14:30:58;21.30;42.40
54558;DHT22;40452;50.080;20.040;2023-04-24T14:33:24;21.30;42.40
54558;DHT22;40452;50.080;20.040;2023-04-24T14:35:49;21.20;42.30
54558;DHT22;40452;50.080;20.040;2023-04-24T14:38:15;21.30;42.40
54558;DHT22;40452;50.080;20.040;2023-04-24T14:40:41;21.20;42.60
54558;DHT22;40452;50.080;20.040;2023-04-24T14:43:06;21.30;42.60
54558;DHT22;40452;50.080;20.040;2023-04-24T14:45:32;21.30;42.70
54558;DHT22;40452;50.080;20.040;2023-04-24T14:47:58;21.20;42.80
54558;DHT22;40452;50.080;20.040;2023-04-24T14:50:23;21.20;42.80
54558;DHT22;40452;50.080;20.040;2023-04-24T14:52:53;21.20;42.90
54558;DHT22;40452;50.080;20.040;2023-04-24T14:55:18;21.20;43.10
54558;DHT22;40452;50.080;20.040;2023-04-24T14:57:44;21.30;43.30
54558;DHT22;40452;50.080;20.040;2023-04-24T15:00:10;21.30;43.40
54558;DHT22;40452;50.080;20.040;2023-04-24T15:02:37;21.30;43.50
54558;DHT22;40452;50.080;20.040;2023-04-24T15:05:07;21.20;43.60
54558;DHT22;40452;50.080;20.040;2023-04-24T15:07:33;21.30;43.80
54558;DHT22;40452;50.080;20.040;2023-04-24T15:10:00;21.20;43.80
54558;DHT22;40452;50.080;20.040;2023-04-24T15:12:26;21.30;44.00
54558;DHT22;40452;50.080;20.040;2023-04-24T15:14:52;21.30;44.30
54558;DHT22;40452;50.080;20.040;2023-04-24T15:17:17;21.30;44.20
54558;DHT22;40452;50.080;20.040;2023-04-24T15:19:43;21.30;44.50
54558;DHT22;40452;50.080;20.040;2023-04-24T15:22:09;21.30;44.40
54558;DHT22;40452;50.080;20.040;2023-04-24T15:24:35;21.30;44.50
54558;DHT22;40452;50.080;20.040;2023-04-24T15:27:00;21.30;44.50
54558;DHT22;40452;50.080;20.040;2023-04-24T15:29:27;21.30;44.50
54558;DHT22;40452;50.080;20.040;2023-04-24T15:31:53;21.30;45.30
54558;DHT22;40452;50.080;20.040;2023-04-24T15:34:19;21.30;44.70
54558;DHT22;40452;50.080;20.040;2023-04-24T15:36:44;21.30;45.00
54558;DHT22;40452;50.080;20.040;2023-04-24T15:39:10;21.30;44.90
54558;DHT22;40452;50.080;20.040;2023-04-24T15:41:35;21.30;45.10
54558;DHT22;40452;50.080;20.040;2023-04-24T15:44:01;21.30;45.00
54558;DHT22;40452;50.080;20.040;2023-04-24T15:46:26;21.30;45.00
54558;DHT22;40452;50.080;20.040;2023-04-24T15:48:52;21.30;45.10
54558;DHT22;40452;50.080;20.040;2023-04-24T15:51:18;21.30;45.00
54558;DHT22;40452;50.080;20.040;2023-04-24T15:53:43;21.30;45.10
54558;DHT22;40452;50.080;20.040;2023-04-24T15:56:09;21.30;45.10
54558;DHT22;40452;50.080;20.040;2023-04-24T15:58:34;21.30;45.00
54558;DHT22;40452;50.080;20.040;2023-04-24T16:01:00;21.30;45.00
54558;DHT22;40452;50.080;20.040;2023-04-24T16:03:26;21.30;45.10
54558;DHT22;40452;50.080;20.040;2023-04-24T16:05:52;21.30;45.00
54558;DHT22;40452;50.080;20.040;2023-04-24T16:08:17;21.30;45.00
54558;DHT22;40452;50.080;20.040;2023-04-24T16:10:43;21.30;45.00
54558;DHT22;40452;50.080;20.040;2023-04-24T16:13:11;21.30;45.00
54558;DHT22;40452;50.080;20.040;2023-04-24T16:15:37;21.30;45.10
54558;DHT22;40452;50.080;20.040;2023-04-24T16:18:03;21.30;45.00
54558;DHT22;40452;50.080;20.040;2023-04-24T16:20:29;21.30;45.00
54558;DHT22;40452;50.080;20.040;2023-04-24T16:22:54;21.30;45.00
54558;DHT22;40452;50.080;20.040;2023-04-24T16:25:23;21.30;45.00
54558;DHT22;40452;50.080;20.040;2023-04-24T16:27:49;21.30;45.00
54558;DHT22;40452;50.080;20.040;2023-04-24T16:30:17;21.30;45.00
54558;DHT22;40452;50.080;20.040;2023-04-24T16:32:43;21.30;45.00
54558;DHT22;40452;50.080;20.040;2023-04-24T16:35:09;21.20;45.70
54558;DHT22;40452;50.080;20.040;2023-04-24T16:37:43;21.30;47.30
54558;DHT22;40452;50.080;20.040;2023-04-24T16:40:12;21.30;48.00
54558;DHT22;40452;50.080;20.040;2023-04-24T16:42:40;21.30;48.90
54558;DHT22;40452;50.080;20.040;2023-04-24T16:45:09;21.30;50.00
54558;DHT22;40452;50.080;20.040;2023-04-24T16:47:35;21.30;51.60
54558;DHT22;40452;50.080;20.040;2023-04-24T16:50:00;21.40;52.80
54558;DHT22;40452;50.080;20.040;2023-04-24T16:52:26;21.40;52.30
54558;DHT22;40452;50.080;20.040;2023-04-24T16:54:51;21.40;50.90
54558;DHT22;40452;50.080;20.040;2023-04-24T16:57:17;21.40;51.00
54558;DHT22;40452;50.080;20.040;2023-04-24T16:59:42;21.40;50.80
54558;DHT22;40452;50.080;20.040;2023-04-24T17:02:08;21.40;50.50
54558;DHT22;40452;50.080;20.040;2023-04-24T17:04:33;21.40;51.00
54558;DHT22;40452;50.080;20.040;2023-04-24T17:07:00;21.50;51.50
54558;DHT22;40452;50.080;20.040;2023-04-24T17:09:26;21.50;51.90
54558;DHT22;40452;50.080;20.040;2023-04-24T17:11:51;21.40;50.90
54558;DHT22;40452;50.080;20.040;2023-04-24T17:14:17;21.50;51.20
54558;DHT22;40452;50.080;20.040;2023-04-24T17:16:42;21.50;51.10
54558;DHT22;40452;50.080;20.040;2023-04-24T17:19:10;21.50;50.80
54558;DHT22;40452;50.080;20.040;2023-04-24T17:21:36;21.50;50.80
54558;DHT22;40452;50.080;20.040;2023-04-24T17:24:01;21.50;50.70
54558;DHT22;40452;50.080;20.040;2023-04-24T17:26:27;21.50;51.10
54558;DHT22;40452;50.080;20.040;2023-04-24T17:28:53;21.60;50.40
54558;DHT22;40452;50.080;20.040;2023-04-24T17:31:19;21.60;49.50
54558;DHT22;40452;50.080;20.040;2023-04-24T17:33:45;21.60;49.70
54558;DHT22;40452;50.080;20.040;2023-04-24T17:36:11;21.50;49.40
54558;DHT22;40452;50.080;20.040;2023-04-24T17:38:36;21.60;49.40
54558;DHT22;40452;50.080;20.040;2023-04-24T17:41:02;21.60;49.20
54558;DHT22;40452;50.080;20.040;2023-04-24T17:43:28;21.60;49.20
54558;DHT22;40452;50.080;20.040;2023-04-24T17:45:54;21.60;49.10
54558;DHT22;40452;50.080;20.040;2023-04-24T17:48:20;21.60;49.00
54558;DHT22;40452;50.080;20.040;2023-04-24T17:50:47;21.60;48.90
54558;DHT22;40452;50.080;20.040;2023-04-24T17:53:12;21.60;48.90
54558;DHT22;40452;50.080;20.040;2023-04-24T17:55:39;21.60;48.80
54558;DHT22;40452;50.080;20.040;2023-04-24T17:58:05;21.60;48.80
54558;DHT22;40452;50.080;20.040;2023-04-24T18:00:34;21.60;48.80
54558;DHT22;40452;50.080;20.040;2023-04-24T18:03:01;21.60;48.80
54558;DHT22;40452;50.080;20.040;2023-04-24T18:05:34;21.50;48.70
54558;DHT22;40452;50.080;20.040;2023-04-24T18:08:00;21.60;48.70
54558;DHT22;40452;50.080;20.040;2023-04-24T18:10:27;21.60;48.60
54558;DHT22;40452;50.080;20.040;2023-04-24T18:12:54;21.60;48.50
54558;DHT22;40452;50.080;20.040;2023-04-24T18:15:19;21.60;48.50
54558;DHT22;40452;50.080;20.040;2023-04-24T18:17:45;21.50;48.40
54558;DHT22;40452;50.080;20.040;2023-04-24T18:20:12;21.50;48.50
54558;DHT22;40452;50.080;20.040;2023-04-24T18:22:39;21.50;48.40
54558;DHT22;40452;50.080;20.040;2023-04-24T18:25:05;21.60;48.40
54558;DHT22;40452;50.080;20.040;2023-04-24T18:27:31;21.50;48.30
54558;DHT22;40452;50.080;20.040;2023-04-24T18:29:58;21.60;48.40
54558;DHT22;40452;50.080;20.040;2023-04-24T18:32:23;21.60;48.30
54558;DHT22;40452;50.080;20.040;2023-04-24T18:34:49;21.50;48.30
54558;DHT22;40452;50.080;20.040;2023-04-24T18:37:15;21.60;48.20
54558;DHT22;40452;50.080;20.040;2023-04-24T18:39:41;21.50;48.10
54558;DHT22;40452;50.080;20.040;2023-04-24T18:42:06;21.50;48.10
54558;DHT22;40452;50.080;20.040;2023-04-24T18:44:32;21.50;48.20
54558;DHT22;40452;50.080;20.040;2023-04-24T18:46:57;21.50;48.20
54558;DHT22;40452;50.080;20.040;2023-04-24T18:49:23;21.50;48.20
54558;DHT22;40452;50.080;20.040;2023-04-24T18:51:48;21.50;48.20
54558;DHT22;40452;50.080;20.040;2023-04-24T18:54:14;21.50;48.10
54558;DHT22;40452;50.080;20.040;2023-04-24T18:56:39;21.50;48.20
54558;DHT22;40452;50.080;20.040;2023-04-24T18:59:05;21.60;48.40
54558;DHT22;40452;50.080;20.040;2023-04-24T19:01:31;21.60;48.50
54558;DHT22;40452;50.080;20.040;2023-04-24T19:03:57;21.60;48.30
54558;DHT22;40452;50.080;20.040;2023-04-24T19:06:23;21.60;48.30
54558;DHT22;40452;50.080;20.040;2023-04-24T19:08:48;21.60;48.40
54558;DHT22;40452;50.080;20.040;2023-04-24T19:11:14;21.50;48.40
54558;DHT22;40452;50.080;20.040;2023-04-24T19:13:40;21.50;48.50
54558;DHT22;40452;50.080;20.040;2023-04-24T19:16:06;21.60;48.50
54558;DHT22;40452;50.080;20.040;2023-04-24T19:18:31;21.60;48.60
54558;DHT22;40452;50.080;20.040;2023-04-24T19:20:57;21.60;48.70
54558;DHT22;40452;50.080;20.040;2023-04-24T19:23:24;21.60;48.60
54558;DHT22;40452;50.080;20.040;2023-04-24T19:25:50;21.60;48.80
54558;DHT22;40452;50.080;20.040;2023-04-24T19:28:15;21.60;48.80
54558;DHT22;40452;50.080;20.040;2023-04-24T19:30:41;21.60;48.80
54558;DHT22;40452;50.080;20.040;2023-04-24T19:33:06;21.60;48.80
54558;DHT22;40452;50.080;20.040;2023-04-24T19:35:32;21.60;48.90
54558;DHT22;40452;50.080;20.040;2023-04-24T19:38:00;21.70;48.80
54558;DHT22;40452;50.080;20.040;2023-04-24T19:40:26;21.60;48.80
54558;DHT22;40452;50.080;20.040;2023-04-24T19:42:52;21.60;48.80
54558;DHT22;40452;50.080;20.040;2023-04-24T19:45:17;21.60;48.80
54558;DHT22;40452;50.080;20.040;2023-04-24T19:47:43;21.60;48.80
54558;DHT22;40452;50.080;20.040;2023-04-24T19:50:09;21.60;48.90
54558;DHT22;40452;50.080;20.040;2023-04-24T19:52:35;21.60;48.90
54558;DHT22;40452;50.080;20.040;2023-04-24T19:55:01;21.60;48.90
54558;DHT22;40452;50.080;20.040;2023-04-24T19:57:26;21.60;48.90
54558;DHT22;40452;50.080;20.040;2023-04-24T19:59:52;21.60;48.90
54558;DHT22;40452;50.080;20.040;2023-04-24T20:02:18;21.60;48.90
54558;DHT22;40452;50.080;20.040;2023-04-24T20:04:44;21.60;49.00
54558;DHT22;40452;50.080;20.040;2023-04-24T20:07:09;21.60;48.90
54558;DHT22;40452;50.080;20.040;2023-04-24T20:09:35;21.70;49.10
54558;DHT22;40452;50.080;20.040;2023-04-24T20:12:00;21.70;49.00
54558;DHT22;40452;50.080;20.040;2023-04-24T20:14:27;21.60;47.00
54558;DHT22;40452;50.080;20.040;2023-04-24T20:16:52;21.60;47.60
54558;DHT22;40452;50.080;20.040;2023-04-24T20:19:19;21.50;47.00
54558;DHT22;40452;50.080;20.040;2023-04-24T20:21:44;21.60;46.70
54558;DHT22;40452;50.080;20.040;2023-04-24T20:24:10;21.50;47.70
54558;DHT22;40452;50.080;20.040;2023-04-24T20:26:36;21.50;46.90
54558;DHT22;40452;50.080;20.040;2023-04-24T20:29:03;21.50;47.40
54558;DHT22;40452;50.080;20.040;2023-04-24T20:31:29;21.50;47.30
54558;DHT22;40452;50.080;20.040;2023-04-24T20:33:54;21.50;47.60
54558;DHT22;40452;50.080;20.040;2023-04-24T20:36:20;21.40;46.90
54558;DHT22;40452;50.080;20.040;2023-04-24T20:38:45;21.40;47.00
